createdAt,value
2019-02-04T00:04:54.908Z,30.87
2019-02-04T00:09:01.277Z,27.20
2019-02-04T00:13:12.553Z,29.53
2019-02-04T00:17:18.828Z,29.03
2019-02-04T00:21:26.762Z,26.07
2019-02-04T00:25:33.164Z,24.60
2019-02-04T00:29:39.920Z,25.27
2019-02-04T00:34:47.217Z,24.13
2019-02-04T00:38:53.525Z,24.37
2019-02-04T00:43:01.418Z,20.93
2019-02-04T00:47:09.432Z,23.67
2019-02-04T00:51:16.076Z,25.37
2019-02-04T00:55:22.412Z,24.70
2019-02-04T00:59:48.897Z,18.37
2019-02-04T01:03:55.545Z,24.30
2019-02-04T01:08:02.226Z,21.47
2019-02-04T01:12:10.395Z,21.90
2019-02-04T01:16:17.233Z,17.23
2019-02-04T01:20:29.196Z,20.53
2019-02-04T01:24:35.873Z,19.17
2019-02-04T01:28:42.196Z,20.37
2019-02-04T01:32:47.697Z,20.37
2019-02-04T01:36:54.218Z,17.23
2019-02-04T01:41:00.568Z,14.43
2019-02-04T01:45:07.732Z,14.83
2019-02-04T01:49:17.532Z,12.30
2019-02-04T01:53:23.850Z,12.33
2019-02-04T01:57:33.389Z,12.17
2019-02-04T02:01:39.891Z,11.60
2019-02-04T02:06:29.149Z,9.97
2019-02-04T02:10:35.549Z,7.93
2019-02-04T02:14:43.387Z,10.40
2019-02-04T02:18:49.654Z,11.97
2019-02-04T02:22:58.110Z,12.13
2019-02-04T02:27:09.959Z,9.10
2019-02-04T02:31:17.464Z,9.97
2019-02-04T02:39:34.170Z,10.30
2019-02-04T02:43:40.480Z,7.20
2019-02-04T02:47:48.430Z,9.13
2019-02-04T02:51:55.695Z,10.27
2019-02-04T02:56:02.550Z,8.40
2019-02-04T03:00:30.519Z,9.50
2019-02-04T03:04:37.566Z,8.87
2019-02-04T03:08:46.107Z,8.20
2019-02-04T03:12:54.269Z,8.80
2019-02-04T03:17:00.537Z,9.40
2019-02-04T03:21:06.673Z,8.37
2019-02-04T03:25:13.302Z,7.57
2019-02-04T03:29:20.918Z,8.00
2019-02-04T03:33:27.701Z,6.53
2019-02-04T03:37:34.163Z,6.57
2019-02-04T03:41:40.463Z,6.27
2019-02-04T03:45:48.152Z,7.70
2019-02-04T03:49:55.058Z,6.83
2019-02-04T03:54:03.545Z,6.27
2019-02-04T03:58:10.360Z,7.80
2019-02-04T04:02:18.167Z,7.03
2019-02-04T04:06:27.179Z,8.40
2019-02-04T04:10:32.501Z,6.27
2019-02-04T04:14:38.856Z,6.03
2019-02-04T04:18:48.583Z,7.83
2019-02-04T04:22:54.875Z,4.80
2019-02-04T04:27:01.230Z,4.97
2019-02-04T04:31:07.673Z,6.47
2019-02-04T04:35:15.366Z,3.13
2019-02-04T04:39:21.625Z,6.07
2019-02-04T04:43:28.106Z,6.07
2019-02-04T04:47:34.563Z,6.30
2019-02-04T04:51:42.546Z,5.13
2019-02-04T04:56:12.471Z,4.93
2019-02-04T05:00:21.792Z,4.93
2019-02-04T05:04:29.549Z,4.40
2019-02-04T05:08:36.867Z,3.80
2019-02-04T05:12:43.199Z,4.60
2019-02-04T05:16:50.788Z,4.93
2019-02-04T05:20:57.103Z,5.03
2019-02-04T05:25:05.976Z,4.50
2019-02-04T05:29:10.380Z,5.33
2019-02-04T05:33:17.686Z,3.43
2019-02-04T05:37:24.084Z,4.60
2019-02-04T05:41:33.335Z,5.27
2019-02-04T05:45:39.648Z,6.23
2019-02-04T05:49:47.093Z,6.00
2019-02-04T05:53:53.481Z,5.23
2019-02-04T05:58:03.757Z,3.77
2019-02-04T06:02:09.488Z,4.13
2019-02-04T06:06:16.790Z,5.87
2019-02-04T06:10:23.075Z,6.80
2019-02-04T06:14:51.223Z,6.47
2019-02-04T06:19:00.916Z,4.63
2019-02-04T06:23:06.850Z,3.87
2019-02-04T06:27:13.212Z,5.37
2019-02-04T06:31:21.182Z,5.53
2019-02-04T06:35:27.973Z,8.17
2019-02-04T06:39:34.383Z,4.77
2019-02-04T06:43:40.667Z,7.83
2019-02-04T06:48:27.350Z,10.37
2019-02-04T06:52:33.682Z,11.90
2019-02-04T06:56:40.260Z,6.17
2019-02-04T07:00:48.172Z,8.70
2019-02-04T07:04:56.210Z,8.23
2019-02-04T07:13:12.904Z,6.33
2019-02-04T07:17:19.303Z,8.53
2019-02-04T07:21:27.788Z,8.43
2019-02-04T07:25:34.064Z,8.37
2019-02-04T07:29:40.378Z,11.03
2019-02-04T07:33:48.151Z,11.20
2019-02-04T07:37:56.167Z,11.13
2019-02-04T07:42:02.469Z,9.47
2019-02-04T07:46:12.079Z,9.50
2019-02-04T07:50:18.365Z,10.93
2019-02-04T07:54:31.354Z,10.60
2019-02-04T07:58:38.460Z,9.33
2019-02-04T08:02:46.115Z,9.70
2019-02-04T08:07:03.768Z,13.53
2019-02-04T08:11:13.740Z,10.70
2019-02-04T08:15:33.115Z,11.63
2019-02-04T08:19:46.812Z,12.93
2019-02-04T08:23:47.356Z,11.70
2019-02-04T08:27:56.683Z,12.63
2019-02-04T08:32:03.130Z,13.53
2019-02-04T08:36:11.304Z,13.97
2019-02-04T08:40:18.098Z,13.43
2019-02-04T08:44:25.512Z,11.70
2019-02-04T08:48:33.186Z,13.13
2019-02-04T08:52:39.505Z,13.47
2019-02-04T08:56:46.045Z,11.13
2019-02-04T09:00:56.858Z,12.77
2019-02-04T09:05:05.690Z,14.77
2019-02-04T09:09:35.335Z,9.30
2019-02-04T09:13:41.634Z,14.50
2019-02-04T09:17:52.679Z,13.57
2019-02-04T09:21:59.130Z,14.47
2019-02-04T09:26:05.680Z,13.77
2019-02-04T09:30:14.874Z,17.40
2019-02-04T09:34:22.234Z,13.00
2019-02-04T09:38:28.722Z,13.07
2019-02-04T09:42:35.607Z,13.53
2019-02-04T09:46:42.209Z,16.90
2019-02-04T09:50:52.927Z,14.13
2019-02-04T09:54:59.321Z,13.43
2019-02-04T09:59:05.673Z,14.00
2019-02-04T10:03:14.455Z,15.07
2019-02-04T10:07:21.953Z,13.03
2019-02-04T10:11:28.312Z,15.77
2019-02-04T10:15:36.959Z,16.03
2019-02-04T10:19:43.252Z,14.43
2019-02-04T10:23:53.641Z,16.00
2019-02-04T10:28:00.183Z,12.80
2019-02-04T10:32:07.436Z,14.40
2019-02-04T10:36:14.860Z,12.30
2019-02-04T10:40:23.271Z,15.53
2019-02-04T10:44:31.886Z,14.57
2019-02-04T10:48:37.299Z,15.00
2019-02-04T10:52:43.966Z,11.20
2019-02-04T10:56:52.770Z,11.80
2019-02-04T11:00:59.060Z,12.80
2019-02-04T11:05:07.250Z,14.77
2019-02-04T11:09:16.055Z,13.30
2019-02-04T11:13:23.617Z,13.40
2019-02-04T11:21:37.122Z,12.67
2019-02-04T11:25:43.709Z,16.90
2019-02-04T11:29:58.738Z,14.37
2019-02-04T11:34:06.734Z,14.60
2019-02-04T11:38:11.790Z,15.77
2019-02-04T11:42:18.151Z,14.23
2019-02-04T11:46:26.873Z,14.87
2019-02-04T11:50:33.762Z,12.17
2019-02-04T11:54:40.452Z,16.27
2019-02-04T11:58:46.756Z,11.37
2019-02-04T12:02:52.689Z,15.73
2019-02-04T12:07:00.085Z,16.87
2019-02-04T12:11:12.177Z,16.53
2019-02-04T12:15:19.969Z,15.40
2019-02-04T12:19:27.463Z,15.53
2019-02-04T12:23:34.996Z,16.37
2019-02-04T12:27:41.425Z,16.40
2019-02-04T12:31:47.952Z,15.97
2019-02-04T12:36:17.022Z,13.17
2019-02-04T12:40:23.406Z,14.87
2019-02-04T12:44:33.538Z,15.27
2019-02-04T12:48:40.922Z,13.70
2019-02-04T12:52:48.727Z,17.00
2019-02-04T12:56:56.453Z,16.27
2019-02-04T13:01:04.467Z,16.13
2019-02-04T13:05:13.931Z,18.67
2019-02-04T13:09:22.131Z,17.43
2019-02-04T13:13:31.175Z,17.33
2019-02-04T13:17:44.565Z,16.70
2019-02-04T13:21:57.100Z,17.27
2019-02-04T13:26:05.118Z,15.63
2019-02-04T13:30:14.757Z,15.07
2019-02-04T13:34:21.145Z,15.40
2019-02-04T13:38:28.577Z,14.83
2019-02-04T13:42:36.094Z,16.53
2019-02-04T13:46:42.456Z,16.40
2019-02-04T13:50:49.202Z,16.37
2019-02-04T13:54:53.272Z,13.90
2019-02-04T13:59:01.013Z,15.93
2019-02-04T14:03:08.752Z,15.53
2019-02-04T14:07:15.160Z,16.63
2019-02-04T14:11:23.096Z,14.93
2019-02-04T14:15:35.569Z,12.40
2019-02-04T14:19:41.402Z,14.70
2019-02-04T14:23:47.829Z,14.17
2019-02-04T14:27:53.582Z,14.10
2019-02-04T14:32:00.837Z,16.03
2019-02-04T14:36:07.219Z,16.03
2019-02-04T14:40:18.608Z,14.97
2019-02-04T14:49:35.843Z,13.77
2019-02-04T14:53:53.044Z,17.53
2019-02-04T14:58:17.821Z,14.37
2019-02-04T15:02:36.790Z,14.60
2019-02-04T15:06:55.822Z,14.70
2019-02-04T15:11:27.684Z,17.43
2019-02-04T15:16:28.683Z,14.20
2019-02-04T15:20:54.870Z,13.83
2019-02-04T15:25:33.929Z,15.10
2019-02-04T15:29:53.434Z,14.10
2019-02-04T15:34:25.077Z,13.23
2019-02-04T15:39:11.356Z,15.60
2019-02-04T15:43:53.887Z,16.47
2019-02-04T15:48:07.213Z,14.50
2019-02-04T15:52:17.305Z,16.83
2019-02-04T15:56:23.619Z,18.60
2019-02-04T16:00:33.767Z,15.30
2019-02-04T16:04:40.328Z,12.03
2019-02-04T16:08:46.718Z,14.83
2019-02-04T16:12:55.013Z,14.23
2019-02-04T16:17:06.875Z,14.73
2019-02-04T16:21:13.465Z,14.33
2019-02-04T16:25:20.530Z,12.37
2019-02-04T16:29:26.958Z,13.63
2019-02-04T16:33:33.253Z,14.00
2019-02-04T16:37:39.620Z,14.67
2019-02-04T16:41:46.630Z,14.50
2019-02-04T16:45:53.530Z,15.83
2019-02-04T16:50:02.633Z,16.37
2019-02-04T16:54:09.308Z,16.00
2019-02-04T16:58:17.298Z,13.43
2019-02-04T17:02:23.769Z,13.63
2019-02-04T17:06:31.930Z,13.40
2019-02-04T17:10:38.351Z,14.37
2019-02-04T17:14:45.391Z,14.50
2019-02-04T17:19:13.158Z,14.77
2019-02-04T17:23:22.700Z,15.23
2019-02-04T17:27:29.171Z,15.83
2019-02-04T17:31:42.150Z,16.50
2019-02-04T17:35:45.501Z,16.43
2019-02-04T17:39:52.375Z,20.27
2019-02-04T17:43:59.956Z,14.93
2019-02-04T17:48:08.078Z,15.90
2019-02-04T17:52:14.448Z,15.10
2019-02-04T17:56:22.195Z,14.73
2019-02-04T18:00:36.024Z,16.03
2019-02-04T18:05:05.007Z,14.60
2019-02-04T18:09:11.847Z,15.30
2019-02-04T18:17:29.385Z,16.17
2019-02-04T18:21:37.279Z,16.10
2019-02-04T18:25:46.271Z,14.83
2019-02-04T18:29:53.820Z,13.50
2019-02-04T18:38:07.442Z,14.57
2019-02-04T18:42:13.802Z,11.00
2019-02-04T18:46:23.618Z,11.23
2019-02-04T18:50:30.680Z,11.30
2019-02-04T18:54:37.110Z,14.53
2019-02-04T18:58:46.919Z,15.90
2019-02-04T19:02:54.147Z,14.47
2019-02-04T19:11:08.681Z,13.77
2019-02-04T19:15:17.256Z,13.83
2019-02-04T19:19:26.443Z,12.73
2019-02-04T19:23:34.556Z,12.23
2019-02-04T19:27:44.431Z,12.47
2019-02-04T19:31:53.730Z,15.03
2019-02-04T19:36:03.648Z,18.07
2019-02-04T19:40:10.238Z,14.60
2019-02-04T19:44:16.684Z,14.07
2019-02-04T19:48:23.548Z,15.30
2019-02-04T19:52:30.851Z,15.37
2019-02-04T19:56:37.316Z,13.77
2019-02-04T20:00:46.525Z,14.57
2019-02-04T20:04:53.015Z,14.67
2019-02-04T20:09:01.495Z,14.70
2019-02-04T20:13:11.874Z,14.90
2019-02-04T20:17:18.575Z,16.03
2019-02-04T20:21:23.891Z,16.13
2019-02-04T20:25:31.643Z,14.47
2019-02-04T20:29:37.968Z,15.13
2019-02-04T20:33:45.858Z,14.53
2019-02-04T20:37:52.158Z,13.77
2019-02-04T20:41:59.148Z,12.77
2019-02-04T20:46:05.328Z,12.37
2019-02-04T20:50:18.388Z,12.80
2019-02-04T20:54:44.912Z,12.10
2019-02-04T20:58:52.206Z,11.80
2019-02-04T21:03:02.022Z,12.80
2019-02-04T21:07:10.555Z,12.23
2019-02-04T21:11:17.116Z,13.63
2019-02-04T21:15:24.885Z,14.80
2019-02-04T21:19:31.423Z,13.43
2019-02-04T21:23:37.805Z,15.60
2019-02-04T21:27:48.091Z,13.10
2019-02-04T21:31:55.337Z,18.27
2019-02-04T21:36:03.248Z,17.63
2019-02-04T21:40:10.903Z,18.93
2019-02-04T21:44:17.863Z,17.50
2019-02-04T21:48:25.738Z,18.67
2019-02-04T21:52:32.073Z,19.37
2019-02-04T21:56:39.591Z,19.30
2019-02-04T22:00:47.792Z,18.70
2019-02-04T22:04:56.219Z,18.87
2019-02-04T22:09:23.210Z,17.77
2019-02-04T22:13:29.745Z,17.37
2019-02-04T22:17:38.794Z,15.83
2019-02-04T22:21:47.205Z,15.23
2019-02-04T22:25:53.973Z,15.87
2019-02-04T22:30:03.866Z,14.80
2019-02-04T22:34:11.482Z,15.67
2019-02-04T22:38:18.707Z,16.77
2019-02-04T22:42:26.557Z,15.90
2019-02-04T22:46:33.221Z,15.77
2019-02-04T22:50:39.554Z,17.07
2019-02-04T22:54:48.181Z,16.13
2019-02-04T22:58:54.785Z,16.50
2019-02-04T23:03:04.137Z,16.50
2019-02-04T23:07:10.823Z,17.00
2019-02-04T23:11:19.534Z,15.43
2019-02-04T23:15:23.532Z,17.40
2019-02-04T23:19:29.957Z,17.23
2019-02-04T23:23:36.560Z,18.57
2019-02-04T23:27:43.703Z,17.37
2019-02-04T23:31:51.778Z,15.57
2019-02-04T23:35:58.256Z,18.10
2019-02-04T23:40:23.790Z,17.63
2019-02-04T23:44:30.858Z,16.70
2019-02-04T23:48:37.587Z,16.70
2019-02-04T23:52:45.869Z,17.43
2019-02-04T23:56:52.239Z,17.70
